Flight Track Log - Related Links

Times and Time Zones

All times are in EDT time to prevent confusion due to time zone crossing. See the N600AJ flight status page for this flight to view local times or setup timezone preferences in your user account.

Time Position Orientation Groundspeed Altitude Reporting Facility
EDT Latitude Longitude Course Direction KTS MPH feet Rate Location/Type
Sun 05:52:45 PM 40.8333 -74.1667 270° West 187 215 1,800  Level New York TRACON
Sun 05:53:45 PM 40.8333 -74.2333 270° West 219 252 6,900 4,050 Climbing New York TRACON
Sun 05:54:45 PM 40.8500 -74.3167 285° West 280 322 9,900 1,429 Climbing New York TRACON
Sun 05:56:54 PM 41.0331 -74.3936 342° North 338 389 11,400 1,200 Climbing New York Center
Sun 05:57:55 PM 41.1058 -74.4664 323° Northwest 359 413 13,700 2,281 Climbing New York Center
Sun 05:58:55 PM 41.2008 -74.5572 324° Northwest 382 440 16,000 1,785 Climbing New York Center
Sun 05:59:56 PM 41.2747 -74.6553 315° West 395 455 17,300 1,714 Climbing New York Center
Sun 06:00:54 PM 41.3517 -74.7839 309° West 401 461 19,400 2,034 Climbing New York Center
Sun 06:01:54 PM 41.4225 -74.9017 309° West 411 473 21,300 867 Climbing New York Center
Sun 06:03:54 PM 41.5719 -75.1492 309° West 424 488 22,000 231 Climbing New York Center
Sun 06:04:56 PM 41.6144 -75.2908 292° West 424 488 22,000  Level New York Center
Sun 06:05:56 PM 41.6547 -75.4378 290° West 414 476 22,000  Level New York Center
Sun 06:06:56 PM 41.6947 -75.5794 291° West 419 482 22,000  Level New York Center
Sun 06:07:55 PM 41.7367 -75.7269 291° West 419 482 22,000  Level New York Center
Sun 06:08:56 PM 41.7764 -75.8719 290° West 414 476 22,000  Level New York Center
Sun 06:10:54 PM 41.9217 -76.1172 309° West 419 482 22,000  Level New York Center
Sun 06:11:55 PM 42.0019 -76.2325 313° West 419 482 22,000  Level New York Center
Sun 06:13:21 PM 42.1158 -76.3931 314° West 426 490 22,000  Level Cleveland Center
Sun 06:14:24 PM 42.1953 -76.5067 313° West 422 486 22,000  Level Cleveland Center
Sun 06:15:25 PM 42.2739 -76.6256 312° West 422 486 22,000 -1,452 Level Cleveland Center
Sun 06:18:32 PM 42.5267 -76.9975 318° Northwest 419 482 16,000 -1,446 Descending Cleveland Center
Sun 06:19:34 PM 42.6092 -77.0917 320° Northwest 394 453 16,000 -72 Level Cleveland Center
Sun 06:19:55 PM 42.6458 -77.1319 321° Northwest 389 448 15,900 -1,355 Descending Cleveland Center
Sun 06:20:36 PM 42.6903 -77.1825 320° Northwest 389 448 14,600 -2,625 Descending Cleveland Center
Sun 06:21:31 PM 42.7631 -77.2656 320° Northwest 319 367 11,700 -2,459 Descending Cleveland Center
Sun 06:23:39 PM 42.9006 -77.4047 316° Northwest 269 310 7,100 -2,143 Descending Cleveland Center
Sun 06:24:00 PM 42.8605 -77.3714 318° Northwest  Level FlightAware Approximate
Sun 06:24:33 PM 42.9592 -77.4403 336° Northwest 267 307 5,200  Level Cleveland Center
Sun 06:24:44 PM 42.9658 -77.4456 330° Northwest 271 312 5,000 -2,262 Descending Cleveland Center
Sun 06:25:34 PM 43.0289 -77.4875 334° Northwest 262 302 2,900 -1,210 Descending Cleveland Center
Sun 06:26:48 PM 43.0889 -77.5236 336° Northwest 239 275 2,500 -451 Descending Cleveland Center
Sun 06:27:47 PM 43.1258 -77.5825 311° West 174 200 1,900 -800 Descending Cleveland Center
Sun 06:28:48 PM 43.1242 -77.6400 268° West 126 145 900 -609 Descending Cleveland Center
Sun 06:29:55 PM 43.1228 -77.6769 267° West 121 139 600 -269 Descending Cleveland Center
Sun 06:31:00 PM 43.1167 -77.6667 North  Level FlightAware Approximate

Login

Don't have an account? Register now (free) for customized features, flight alerts, and more!